Time;durP1;ratioP1;P1;durP2;ratioP2;P2;SDS_P1;SDS_P2;PMS_P1;PMS_P2;Temp;Humidity;BMP_temperature;BMP_pressure;BME280_temperature;BME280_humidity;BME280_pressure;Samples;Min_cycle;Max_cycle;Signal;HPM_P1;HPM_P2
2022/12/15 00:38:51;;;;;;;;;;;;;;;10.44;67.48;100306.78;1264579;23;623;-66
2022/12/15 00:39:41;;;;;;;;;;;;;;;10.43;67.43;100304.22;1265906;23;677;-67
2022/12/15 00:40:31;;;;;;;;;;;;;;;10.43;67.55;100302.41;1265663;23;666;-67
2022/12/15 00:41:22;;;;;;;;;;;;;;;10.41;67.68;100301.69;1265902;23;697;-66
2022/12/15 00:42:12;;;;;;;;;;;;;;;10.40;67.27;100299.13;1265018;23;614;-66
2022/12/15 00:43:03;;;;;;;;;;;;;;;10.36;67.55;100301.19;1265798;23;559;-66
2022/12/15 00:43:53;;;;;;;;;;;;;;;10.36;67.52;100303.84;1266072;23;614;-66
2022/12/15 00:44:43;;;;;;;;;;;;;;;10.32;67.74;100298.84;1265606;23;639;-66
2022/12/15 00:46:55;;;;;;;;;;;;;;;10.36;67.81;100303.00;1264051;23;673;-66
2022/12/15 00:47:45;;;;;;;;;;;;;;;10.40;68.01;100299.97;1265224;23;621;-66
2022/12/15 00:48:36;;;;;;;;;;;;;;;10.36;67.78;100303.00;1265895;23;592;-66
2022/12/15 00:50:51;;;;;;;;;;;;;;;10.33;68.00;100298.75;1264698;23;776;-66
2022/12/15 01:20:33;;;;;;;;;;;;;;;10.36;68.05;100311.00;1263981;23;611;-66
2022/12/15 01:21:23;;;;;;;;;;;;;;;10.34;67.76;100310.25;1267435;23;652;-66
2022/12/15 01:22:14;;;;;;;;;;;;;;;10.36;67.16;100319.84;1265365;23;654;-66
2022/12/15 01:23:04;;;;;;;;;;;;;;;10.34;67.91;100313.75;1265877;23;689;-65
2022/12/15 01:23:55;;;;;;;;;;;;;;;10.33;67.51;100320.03;1265748;23;626;-66
2022/12/15 01:24:45;;;;;;;;;;;;;;;10.30;67.54;100309.59;1259468;23;677;-66
2022/12/15 01:25:36;;;;;;;;;;;;;;;10.28;67.86;100316.84;1260790;23;637;-66
2022/12/15 01:26:26;;;;;;;;;;;;;;;10.23;68.06;100313.66;1267242;23;693;-66
2022/12/15 01:27:16;;;;;;;;;;;;;;;10.28;68.13;100321.31;1265120;23;666;-66
2022/12/15 01:28:07;;;;;;;;;;;;;;;10.27;67.67;100320.47;1265559;23;677;-66
2022/12/15 01:28:57;;;;;;;;;;;;;;;10.35;67.77;100318.13;1265986;23;666;-66
2022/12/15 01:29:48;;;;;;;;;;;;;;;10.39;66.65;100321.44;1265200;23;641;-66
2022/12/15 01:30:38;;;;;;;;;;;;;;;10.46;65.75;100322.66;1259430;23;662;-66
2022/12/15 01:31:29;;;;;;;;;;;;;;;10.46;64.88;100332.47;1258415;23;648;-66
2022/12/15 01:32:19;;;;;;;;;;;;;;;10.48;65.08;100334.06;1266915;23;657;-66
2022/12/15 01:33:11;;;;;;;;;;;;;;;10.48;65.01;100327.88;1265578;23;724;-66
2022/12/15 01:34:01;;;;;;;;;;;;;;;10.48;65.20;100328.72;1267362;23;1881;-67
2022/12/15 01:34:51;;;;;;;;;;;;;;;10.47;64.31;100335.03;1265491;23;618;-66
2022/12/15 01:35:42;;;;;;;;;;;;;;;10.49;64.69;100333.09;1265638;23;630;-66
2022/12/15 01:36:32;;;;;;;;;;;;;;;10.50;64.59;100337.47;1265904;23;644;-66
2022/12/15 01:37:23;;;;;;;;;;;;;;;10.51;64.19;100335.66;1265309;23;649;-66
2022/12/15 01:38:13;;;;;;;;;;;;;;;10.50;63.82;100336.63;1265921;23;749;-66
2022/12/15 01:39:03;;;;;;;;;;;;;;;10.51;63.94;100327.66;1266424;23;645;-67
2022/12/15 01:41:03;;;;;;;;;;;;;;;10.55;64.08;100339.81;1263984;23;615;-66
2022/12/15 01:41:53;;;;;;;;;;;;;;;10.56;63.66;100336.19;1265958;23;571;-66
2022/12/15 01:42:44;;;;;;;;;;;;;;;10.56;63.48;100339.69;1265697;23;645;-66
2022/12/15 01:43:34;;;;;;;;;;;;;;;10.56;63.81;100347.69;1265808;23;676;-66
2022/12/15 01:44:25;;;;;;;;;;;;;;;10.58;63.11;100350.22;1265574;23;638;-66
2022/12/15 01:45:15;;;;;;;;;;;;;;;10.57;63.10;100345.88;1267409;23;629;-66
2022/12/15 01:46:06;;;;;;;;;;;;;;;10.56;63.63;100347.69;1265479;23;625;-66
2022/12/15 01:46:56;;;;;;;;;;;;;;;10.56;63.15;100341.50;1265836;23;684;-65
2022/12/15 01:47:47;;;;;;;;;;;;;;;10.56;62.90;100345.03;1265289;23;653;-65
2022/12/15 01:48:37;;;;;;;;;;;;;;;10.56;62.94;100337.03;1265786;23;598;-66
2022/12/15 01:49:27;;;;;;;;;;;;;;;10.50;63.15;100340.13;1265066;23;618;-65
2022/12/15 01:50:18;;;;;;;;;;;;;;;10.44;63.99;100344.06;1265708;23;671;-66
2022/12/15 01:51:09;;;;;;;;;;;;;;;10.46;64.05;100341.31;1265850;23;547;-65
2022/12/15 01:52:00;;;;;;;;;;;;;;;10.46;64.23;100343.97;1267318;23;625;-66
2022/12/15 01:52:50;;;;;;;;;;;;;;;10.46;64.09;100341.31;1266764;23;1158;-65
2022/12/15 01:53:40;;;;;;;;;;;;;;;10.43;64.52;100336.19;1266913;23;688;-66
2022/12/15 01:54:31;;;;;;;;;;;;;;;10.38;64.64;100343.69;1265615;23;538;-66
2022/12/15 01:55:21;;;;;;;;;;;;;;;10.37;64.65;100339.31;1265944;23;709;-66
2022/12/15 01:56:12;;;;;;;;;;;;;;;10.43;64.91;100346.84;1265614;23;595;-66
2022/12/15 01:57:02;;;;;;;;;;;;;;;10.40;65.03;100339.06;1265767;23;661;-65
2022/12/15 01:57:53;;;;;;;;;;;;;;;10.40;65.15;100347.06;1265088;23;594;-66
2022/12/15 01:58:43;;;;;;;;;;;;;;;10.37;65.09;100342.84;1265727;23;587;-66
2022/12/15 01:59:34;;;;;;;;;;;;;;;10.35;65.15;100350.09;1265059;23;728;-66
2022/12/15 02:00:24;;;;;;;;;;;;;;;10.35;65.18;100355.41;1267113;23;660;-66
2022/12/15 02:01:15;;;;;;;;;;;;;;;10.35;65.73;100349.22;1265586;23;802;-65
2022/12/15 02:02:05;;;;;;;;;;;;;;;10.32;65.85;100352.97;1265749;23;657;-65
2022/12/15 02:02:55;;;;;;;;;;;;;;;10.31;66.13;100355.72;1266455;23;650;-65
2022/12/15 02:03:46;;;;;;;;;;;;;;;10.29;65.89;100349.66;1265718;23;606;-65
2022/12/15 02:04:36;;;;;;;;;;;;;;;10.29;65.88;100357.66;1265873;23;638;-66
2022/12/15 02:05:27;;;;;;;;;;;;;;;10.28;66.33;100354.13;1265355;23;639;-66
2022/12/15 02:06:20;;;;;;;;;;;;;;;10.23;66.61;100347.44;1265838;23;654;-65
2022/12/15 02:07:10;;;;;;;;;;;;;;;10.21;66.47;100347.53;1265322;23;622;-66
2022/12/15 02:08:01;;;;;;;;;;;;;;;10.23;66.11;100345.63;1265134;23;623;-66
2022/12/15 02:08:51;;;;;;;;;;;;;;;10.26;66.22;100349.88;1265742;23;643;-65
2022/12/15 02:09:42;;;;;;;;;;;;;;;10.27;66.30;100347.09;1265587;23;652;-66
2022/12/15 02:10:32;;;;;;;;;;;;;;;10.25;66.08;100354.34;1265181;23;689;-66
2022/12/15 02:11:22;;;;;;;;;;;;;;;10.24;66.29;100357.13;1266506;23;684;-68
2022/12/15 02:12:13;;;;;;;;;;;;;;;10.24;66.35;100352.66;1265549;23;630;-65
2022/12/15 02:13:03;;;;;;;;;;;;;;;10.24;66.28;100351.78;1265852;23;688;-67
2022/12/15 02:13:54;;;;;;;;;;;;;;;10.23;66.54;100347.44;1265543;23;1885;-67
2022/12/15 02:14:44;;;;;;;;;;;;;;;10.21;67.03;100352.03;1265854;23;642;-65
2022/12/15 02:15:35;;;;;;;;;;;;;;;10.23;66.72;100350.09;1265126;23;633;-65
2022/12/15 02:16:25;;;;;;;;;;;;;;;10.27;66.80;100352.44;1265314;23;646;-65
2022/12/15 02:17:15;;;;;;;;;;;;;;;10.29;67.02;100355.00;1264977;23;661;-68
2022/12/15 02:18:06;;;;;;;;;;;;;;;10.27;67.01;100351.59;1265156;23;626;-66
2022/12/15 02:18:56;;;;;;;;;;;;;;;10.30;66.59;100357.53;1265878;23;653;-65
2022/12/15 02:19:47;;;;;;;;;;;;;;;10.27;67.08;100360.41;1265549;23;661;-66
2022/12/15 02:20:37;;;;;;;;;;;;;;;10.26;67.04;100355.19;1265509;23;752;-65
2022/12/15 02:21:28;;;;;;;;;;;;;;;10.26;66.97;100357.88;1265476;23;657;-65
2022/12/15 02:22:18;;;;;;;;;;;;;;;10.24;67.20;100363.28;1265670;23;654;-65
2022/12/15 02:23:08;;;;;;;;;;;;;;;10.23;67.16;100366.06;1259420;23;627;-66
2022/12/15 02:23:59;;;;;;;;;;;;;;;10.24;66.50;100362.44;1258657;23;617;-66
2022/12/15 02:24:49;;;;;;;;;;;;;;;10.24;66.65;100373.09;1267112;23;614;-66
2022/12/15 02:25:40;;;;;;;;;;;;;;;10.25;66.55;100364.16;1265478;23;618;-66
2022/12/15 02:26:30;;;;;;;;;;;;;;;10.25;66.97;100380.13;1265640;23;689;-66
2022/12/15 02:27:21;;;;;;;;;;;;;;;10.24;66.95;100379.28;1264957;23;653;-66
2022/12/15 02:28:11;;;;;;;;;;;;;;;10.25;66.81;100369.47;1265142;23;685;-66
2022/12/15 02:29:02;;;;;;;;;;;;;;;10.23;67.07;100368.72;1265181;23;598;-66
2022/12/15 02:29:52;;;;;;;;;;;;;;;10.22;66.66;100369.69;1265623;23;665;-66
2022/12/15 02:30:42;;;;;;;;;;;;;;;10.22;66.76;100367.03;1265022;23;720;-66
2022/12/15 02:31:48;;;;;;;;;;;;;;;10.20;67.40;100367.16;1265059;23;618;-66
2022/12/15 02:32:38;;;;;;;;;;;;;;;10.19;67.17;100359.28;1265923;23;657;-66
2022/12/15 02:33:29;;;;;;;;;;;;;;;10.18;66.88;100368.19;1265615;23;653;-66
2022/12/15 02:34:19;;;;;;;;;;;;;;;10.19;66.85;100360.13;1265639;23;1926;-66
2022/12/15 02:35:10;;;;;;;;;;;;;;;10.18;67.12;100362.88;1265471;23;681;-66
2022/12/15 02:36:00;;;;;;;;;;;;;;;10.17;66.99;100355.84;1265749;23;681;-65
2022/12/15 02:36:51;;;;;;;;;;;;;;;10.20;67.13;100361.00;1265189;23;654;-66
2022/12/15 02:37:41;;;;;;;;;;;;;;;10.19;67.24;100359.28;1265283;23;621;-66
2022/12/15 02:38:31;;;;;;;;;;;;;;;10.17;67.25;100359.34;1265349;23;610;-66
2022/12/15 02:39:22;;;;;;;;;;;;;;;10.18;67.27;100363.72;1265537;23;653;-66
2022/12/15 02:40:12;;;;;;;;;;;;;;;10.17;67.36;100366.50;1265697;23;649;-66
2022/12/15 02:41:03;;;;;;;;;;;;;;;10.16;67.35;100364.78;1265402;23;657;-66
2022/12/15 02:41:53;;;;;;;;;;;;;;;10.16;67.00;100360.31;1265716;23;629;-66
2022/12/15 02:42:44;;;;;;;;;;;;;;;10.15;67.35;100369.25;1267329;23;578;-66
2022/12/15 02:43:34;;;;;;;;;;;;;;;10.16;67.72;100370.13;1259329;23;527;-66
2022/12/15 02:44:25;;;;;;;;;;;;;;;10.16;67.77;100370.13;1260850;23;615;-66
2022/12/15 02:45:15;;;;;;;;;;;;;;;10.15;66.91;100369.25;1267138;23;649;-66
2022/12/15 02:46:06;;;;;;;;;;;;;;;10.10;67.28;100360.75;1265940;23;681;-66
2022/12/15 02:46:56;;;;;;;;;;;;;;;10.15;67.86;100363.09;1265249;23;618;-66
2022/12/15 02:47:46;;;;;;;;;;;;;;;10.16;67.77;100362.13;1265398;23;924;-66
2022/12/15 02:48:37;;;;;;;;;;;;;;;10.18;67.80;100357.53;1265165;23;631;-66
2022/12/15 02:49:27;;;;;;;;;;;;;;;10.16;67.84;100362.97;1265553;23;626;-66
2022/12/15 02:50:18;;;;;;;;;;;;;;;10.15;67.52;100363.94;1265461;23;665;-66
2022/12/15 02:51:08;;;;;;;;;;;;;;;10.15;67.42;100358.59;1267382;23;605;-66
2022/12/15 02:51:59;;;;;;;;;;;;;;;10.14;67.31;100364.03;1265404;23;562;-66
2022/12/15 02:52:49;;;;;;;;;;;;;;;10.13;67.67;100362.34;1264979;23;1233;-66
2022/12/15 02:53:40;;;;;;;;;;;;;;;10.16;67.36;100359.47;1266340;23;712;-66
2022/12/15 02:54:30;;;;;;;;;;;;;;;10.15;67.77;100357.75;1265521;23;653;-66
2022/12/15 02:55:20;;;;;;;;;;;;;;;10.15;67.62;100353.28;1265883;23;729;-66
2022/12/15 02:56:11;;;;;;;;;;;;;;;10.14;67.69;100356.06;1265435;23;661;-66
2022/12/15 02:57:02;;;;;;;;;;;;;;;10.13;67.39;100355.19;1265180;23;645;-66
2022/12/15 02:57:53;;;;;;;;;;;;;;;10.13;67.48;100354.34;1267137;23;642;-66
2022/12/15 02:58:43;;;;;;;;;;;;;;;10.12;67.12;100357.97;1259386;23;669;-65
2022/12/15 02:59:34;;;;;;;;;;;;;;;10.09;67.79;100356.38;1259166;23;641;-65
2022/12/15 03:00:24;;;;;;;;;;;;;;;10.13;67.53;100359.69;1267026;23;665;-66
2022/12/15 03:01:14;;;;;;;;;;;;;;;10.12;67.39;100360.63;1265800;23;637;-65
2022/12/15 03:02:05;;;;;;;;;;;;;;;10.12;67.62;100373.94;1265425;23;601;-66
2022/12/15 03:02:55;;;;;;;;;;;;;;;10.11;67.54;100365.09;1259388;23;673;-66
2022/12/15 03:03:46;;;;;;;;;;;;;;;10.13;67.54;100375.66;1260871;23;649;-66
2022/12/15 03:04:36;;;;;;;;;;;;;;;10.14;67.35;100366.69;1267049;23;630;-66
2022/12/15 03:05:27;;;;;;;;;;;;;;;10.15;67.68;100369.25;1265512;23;638;-66
2022/12/15 03:06:17;;;;;;;;;;;;;;;10.14;67.58;100369.38;1265518;23;1043;-66
2022/12/15 03:07:08;;;;;;;;;;;;;;;10.14;67.78;100369.38;1264911;23;610;-66
2022/12/15 03:07:58;;;;;;;;;;;;;;;10.12;67.55;100373.94;1265467;23;641;-66
2022/12/15 03:08:49;;;;;;;;;;;;;;;10.10;67.76;100371.38;1265931;23;653;-66
2022/12/15 03:09:39;;;;;;;;;;;;;;;10.14;67.82;100372.03;1265488;23;614;-66
2022/12/15 03:10:30;;;;;;;;;;;;;;;10.12;67.59;100366.81;1265762;23;654;-66
2022/12/15 03:11:20;;;;;;;;;;;;;;;10.14;67.66;100369.38;1267201;23;589;-66
2022/12/15 03:12:11;;;;;;;;;;;;;;;10.15;67.31;100368.41;1266193;23;521;-66
2022/12/15 03:13:01;;;;;;;;;;;;;;;10.15;66.88;100376.41;1265532;23;812;-66
2022/12/15 03:13:51;;;;;;;;;;;;;;;10.16;67.37;100375.44;1259271;23;681;-66
2022/12/15 03:14:42;;;;;;;;;;;;;;;10.15;67.57;100376.41;1260749;23;700;-66
2022/12/15 03:15:33;;;;;;;;;;;;;;;10.16;67.43;100380.75;1266883;23;654;-66
2022/12/15 03:16:23;;;;;;;;;;;;;;;10.17;67.29;100385.13;1265379;23;622;-66
2022/12/15 03:17:14;;;;;;;;;;;;;;;10.16;67.72;100378.09;1258352;23;658;-66
2022/12/15 03:18:04;;;;;;;;;;;;;;;10.17;67.24;100379.81;1259336;23;669;-66
2022/12/15 03:18:55;;;;;;;;;;;;;;;10.16;66.97;100372.78;1266964;23;611;-66
2022/12/15 03:19:45;;;;;;;;;;;;;;;10.17;67.23;100382.47;1265487;23;646;-66
2022/12/15 03:20:36;;;;;;;;;;;;;;;10.15;67.46;100385.22;1265839;23;602;-66
2022/12/15 03:21:26;;;;;;;;;;;;;;;10.12;67.28;100385.44;1265552;23;662;-66
2022/12/15 03:22:16;;;;;;;;;;;;;;;10.15;67.54;100387.03;1265678;23;637;-66
2022/12/15 03:23:07;;;;;;;;;;;;;;;10.14;67.26;100383.53;1265441;23;618;-66
2022/12/15 03:23:57;;;;;;;;;;;;;;;10.14;67.14;100380.88;1265591;23;574;-66
2022/12/15 03:24:48;;;;;;;;;;;;;;;10.12;67.42;100381.94;1265502;23;623;-66
2022/12/15 03:25:38;;;;;;;;;;;;;;;10.12;67.68;100379.25;1265205;23;599;-66
2022/12/15 03:26:29;;;;;;;;;;;;;;;10.14;67.62;100385.34;1265528;23;598;-66
2022/12/15 03:27:19;;;;;;;;;;;;;;;10.15;67.32;100387.03;1264970;23;645;-66
2022/12/15 03:28:10;;;;;;;;;;;;;;;10.13;67.12;100387.16;1265672;23;618;-66
2022/12/15 03:29:00;;;;;;;;;;;;;;;10.13;67.23;100381.81;1265419;23;650;-66
2022/12/15 03:29:50;;;;;;;;;;;;;;;10.14;67.72;100388.00;1265655;23;622;-66
2022/12/15 03:30:41;;;;;;;;;;;;;;;10.13;67.62;100391.63;1265214;23;657;-65
2022/12/15 03:31:31;;;;;;;;;;;;;;;10.12;67.41;100389.91;1265544;23;653;-66
2022/12/15 03:32:22;;;;;;;;;;;;;;;10.15;67.45;100387.03;1265229;23;665;-65
2022/12/15 03:33:12;;;;;;;;;;;;;;;10.13;67.43;100380.97;1265446;23;653;-65
2022/12/15 03:34:02;;;;;;;;;;;;;;;10.10;67.30;100387.34;1265608;23;1924;-65
2022/12/15 03:34:54;;;;;;;;;;;;;;;10.07;67.22;100380.44;1265522;23;652;-65
2022/12/15 03:35:44;;;;;;;;;;;;;;;10.07;67.28;100372.44;1266849;23;672;-66
2022/12/15 03:36:34;;;;;;;;;;;;;;;10.09;67.36;100381.19;1265188;23;681;-65
2022/12/15 03:37:25;;;;;;;;;;;;;;;10.09;67.68;100375.84;1264961;23;594;-65
2022/12/15 03:38:15;;;;;;;;;;;;;;;10.11;67.42;100381.06;1265563;23;653;-65
2022/12/15 03:39:06;;;;;;;;;;;;;;;10.12;67.15;100379.25;1265504;23;658;-66
2022/12/15 03:39:56;;;;;;;;;;;;;;;10.10;67.31;100382.03;1265478;23;665;-66
2022/12/15 03:40:47;;;;;;;;;;;;;;;10.13;67.33;100383.63;1265406;23;610;-66
2022/12/15 03:41:37;;;;;;;;;;;;;;;10.10;67.34;100388.22;1265449;23;658;-66
2022/12/15 03:43:01;;;;;;;;;;;;;;;10.09;67.35;100381.19;1265695;23;636;-66
2022/12/15 03:43:45;;;;;;;;;;;;;;;10.13;67.32;100386.28;1266412;23;688;-66
2022/12/15 03:44:35;;;;;;;;;;;;;;;10.13;67.33;100386.28;1267213;23;597;-66
2022/12/15 03:45:26;;;;;;;;;;;;;;;10.10;67.58;100387.34;1266329;23;689;-65
2022/12/15 03:46:16;;;;;;;;;;;;;;;10.11;66.96;100378.41;1265455;23;633;-65
2022/12/15 03:47:06;;;;;;;;;;;;;;;10.13;67.49;100388.97;1264553;23;634;-65
2022/12/15 03:47:57;;;;;;;;;;;;;;;10.12;67.58;100389.91;1264877;23;614;-66
2022/12/15 03:48:47;;;;;;;;;;;;;;;10.14;67.19;100388.00;1265467;23;693;-66
2022/12/15 03:49:38;;;;;;;;;;;;;;;10.12;67.03;100392.56;1265152;23;610;-66
2022/12/15 03:50:28;;;;;;;;;;;;;;;10.11;67.45;100394.38;1259315;23;633;-66
2022/12/15 03:51:19;;;;;;;;;;;;;;;10.07;67.47;100391.09;1260730;23;669;-66
2022/12/15 03:52:09;;;;;;;;;;;;;;;10.06;67.53;100396.50;1264482;23;665;-66
2022/12/15 03:52:59;;;;;;;;;;;;;;;10.04;67.61;100395.75;1265528;23;1195;-66
2022/12/15 03:53:50;;;;;;;;;;;;;;;10.05;67.47;100395.66;1258563;23;657;-66
2022/12/15 03:54:41;;;;;;;;;;;;;;;10.12;67.32;100395.25;1260736;23;838;-66
2022/12/15 03:55:31;;;;;;;;;;;;;;;10.10;67.66;100398.00;1267064;23;646;-66
2022/12/15 03:56:22;;;;;;;;;;;;;;;10.09;67.19;100391.84;1265622;23;677;-66
2022/12/15 03:57:12;;;;;;;;;;;;;;;10.09;67.64;100397.16;1264988;23;646;-66
2022/12/15 03:58:02;;;;;;;;;;;;;;;10.08;67.20;100392.78;1265662;23;621;-66
2022/12/15 03:58:53;;;;;;;;;;;;;;;10.11;67.66;100397.06;1265343;23;628;-66
2022/12/15 03:59:43;;;;;;;;;;;;;;;10.03;67.50;100386.94;1265146;23;654;-66
2022/12/15 04:00:34;;;;;;;;;;;;;;;10.05;67.42;100390.34;1265415;23;650;-66
2022/12/15 04:01:24;;;;;;;;;;;;;;;10.06;67.42;100394.69;1259056;23;645;-66
2022/12/15 04:02:14;;;;;;;;;;;;;;;10.05;67.61;100385.00;1260862;23;649;-66
2022/12/15 04:03:05;;;;;;;;;;;;;;;10.08;67.32;100400.78;1265265;23;634;-66
2022/12/15 04:03:55;;;;;;;;;;;;;;;10.07;67.41;100396.41;1265104;23;578;-66
2022/12/15 04:04:47;;;;;;;;;;;;;;;10.08;67.63;100384.81;1259006;23;705;-66
2022/12/15 04:05:37;;;;;;;;;;;;;;;10.06;67.58;100385.88;1258679;23;662;-66
2022/12/15 04:06:28;;;;;;;;;;;;;;;10.06;67.69;100392.03;1264543;23;613;-66
2022/12/15 04:07:18;;;;;;;;;;;;;;;10.11;67.60;100383.75;1265053;23;606;-66
2022/12/15 04:08:09;;;;;;;;;;;;;;;10.09;67.72;100375.84;1265467;23;599;-66
2022/12/15 04:08:59;;;;;;;;;;;;;;;10.08;67.35;100384.81;1265436;23;638;-66
2022/12/15 04:09:49;;;;;;;;;;;;;;;10.04;67.03;100380.66;1259254;23;696;-66
2022/12/15 04:10:40;;;;;;;;;;;;;;;10.06;67.46;100381.38;1260669;23;651;-66
2022/12/15 04:11:30;;;;;;;;;;;;;;;10.07;67.08;100383.09;1267044;23;681;-66
2022/12/15 04:12:21;;;;;;;;;;;;;;;10.05;67.39;100387.66;1264983;23;660;-66
2022/12/15 04:13:11;;;;;;;;;;;;;;;10.06;67.33;100381.38;1265568;23;639;-66
2022/12/15 04:14:02;;;;;;;;;;;;;;;10.07;66.92;100380.44;1264794;23;1889;-66
2022/12/15 04:14:52;;;;;;;;;;;;;;;10.07;67.13;100383.09;1265454;23;616;-65
2022/12/15 04:15:43;;;;;;;;;;;;;;;10.10;66.97;100382.88;1266934;23;586;-66
2022/12/15 04:16:33;;;;;;;;;;;;;;;10.07;66.98;100383.09;1265563;23;638;-66
2022/12/15 04:17:24;;;;;;;;;;;;;;;10.05;67.63;100385.00;1264880;23;796;-66
2022/12/15 04:18:14;;;;;;;;;;;;;;;10.05;67.52;100384.16;1265393;23;681;-66
2022/12/15 04:20:14;;;;;;;;;;;;;;;10.04;67.31;100382.47;1264266;23;642;-66
2022/12/15 04:21:04;;;;;;;;;;;;;;;10.02;67.57;100390.56;1264550;23;646;-66
2022/12/15 04:21:54;;;;;;;;;;;;;;;10.01;67.44;100391.53;1265265;23;618;-66
2022/12/15 04:22:45;;;;;;;;;;;;;;;9.97;67.51;100384.72;1265473;23;553;-66
2022/12/15 04:23:35;;;;;;;;;;;;;;;10.00;67.39;100389.81;1265503;23;637;-66
2022/12/15 05:32:29;;;;;;;;;;;;;;;9.77;68.12;100430.47;1263425;23;641;-65
2022/12/15 05:33:20;;;;;;;;;;;;;;;9.82;67.98;100423.03;1265115;23;607;-66
2022/12/15 05:34:10;;;;;;;;;;;;;;;9.82;68.13;100430.16;1257502;23;1881;-67
2022/12/15 05:35:01;;;;;;;;;;;;;;;9.83;67.78;100416.75;1258565;23;637;-66
2022/12/15 05:35:51;;;;;;;;;;;;;;;9.87;67.76;100417.38;1266462;23;633;-66
2022/12/15 05:36:42;;;;;;;;;;;;;;;9.85;67.47;100424.63;1264964;23;812;-66
2022/12/15 05:37:32;;;;;;;;;;;;;;;9.87;67.86;100418.22;1265328;23;650;-66
2022/12/15 05:38:22;;;;;;;;;;;;;;;9.86;67.50;100421.84;1265735;23;713;-66
2022/12/15 05:39:13;;;;;;;;;;;;;;;9.84;67.89;100417.63;1264364;23;662;-66
2022/12/15 05:40:03;;;;;;;;;;;;;;;9.87;67.61;100418.22;1258874;23;810;-66
2022/12/15 05:40:54;;;;;;;;;;;;;;;9.86;67.59;100421.00;1259056;23;614;-67
2022/12/15 05:41:44;;;;;;;;;;;;;;;9.83;67.50;100416.75;1267266;23;669;-67
2022/12/15 05:42:35;;;;;;;;;;;;;;;9.85;68.02;100419.31;1265754;23;614;-67
2022/12/15 05:43:25;;;;;;;;;;;;;;;9.86;68.00;100419.19;1265120;23;653;-66
2022/12/15 05:44:16;;;;;;;;;;;;;;;9.87;67.97;100412.91;1264943;23;625;-67
2022/12/15 05:45:06;;;;;;;;;;;;;;;9.86;67.64;100418.34;1265612;23;610;-67
2022/12/15 05:45:57;;;;;;;;;;;;;;;9.83;67.83;100411.44;1263613;23;606;-66
2022/12/15 05:46:47;;;;;;;;;;;;;;;9.83;67.63;100411.44;1257540;23;670;-66
2022/12/15 05:47:37;;;;;;;;;;;;;;;9.85;67.54;100417.50;1259145;23;576;-67
2022/12/15 05:48:28;;;;;;;;;;;;;;;9.87;67.97;100415.56;1258977;23;658;-66
2022/12/15 05:49:18;;;;;;;;;;;;;;;9.84;67.81;100421.13;1261027;23;1217;-66
2022/12/15 05:50:09;;;;;;;;;;;;;;;9.82;67.78;100425.69;1267251;23;672;-66
2022/12/15 05:50:59;;;;;;;;;;;;;;;9.87;67.98;100418.22;1265681;23;602;-66
2022/12/15 05:51:50;;;;;;;;;;;;;;;9.85;68.12;100420.19;1265750;23;633;-65
2022/12/15 05:52:40;;;;;;;;;;;;;;;9.85;68.35;100424.63;1265397;23;710;-67
2022/12/15 05:53:30;;;;;;;;;;;;;;;9.85;68.81;100425.50;1253557;23;646;-68
2022/12/15 05:54:21;;;;;;;;;;;;;;;9.97;69.72;100424.63;1255471;23;1910;-68
2022/12/15 05:55:12;;;;;;;;;;;;;;;10.16;69.89;100418.03;1254963;23;1125;-67
2022/12/15 05:56:03;;;;;;;;;;;;;;;10.24;69.83;100421.03;1254372;23;653;-67
2022/12/15 05:56:53;;;;;;;;;;;;;;;10.29;70.49;100422.41;1251560;23;657;-67
2022/12/15 05:57:44;;;;;;;;;;;;;;;10.36;70.54;100429.03;1256057;23;672;-67
2022/12/15 05:58:34;;;;;;;;;;;;;;;10.39;70.61;100425.31;1251885;23;618;-67
2022/12/15 05:59:25;;;;;;;;;;;;;;;10.47;70.84;100419.41;1252686;23;618;-67
2022/12/15 06:00:15;;;;;;;;;;;;;;;10.49;70.72;100426.34;1252339;23;720;-67
2022/12/15 06:01:06;;;;;;;;;;;;;;;10.53;70.60;100422.50;1253008;23;812;-67
2022/12/15 06:01:56;;;;;;;;;;;;;;;10.56;70.63;100422.28;1256149;23;617;-67
2022/12/15 06:02:46;;;;;;;;;;;;;;;10.57;70.24;100431.94;1255981;23;662;-67
2022/12/15 06:03:37;;;;;;;;;;;;;;;10.61;69.82;100425.44;1252744;23;651;-67
2022/12/15 06:04:27;;;;;;;;;;;;;;;10.64;69.55;100425.22;1252853;23;662;-67
2022/12/15 06:05:18;;;;;;;;;;;;;;;10.65;69.76;100426.94;1253115;23;694;-68
2022/12/15 06:06:08;;;;;;;;;;;;;;;10.65;70.10;100424.28;1252760;23;657;-68
2022/12/15 06:06:59;;;;;;;;;;;;;;;10.67;69.94;100430.34;1255417;23;665;-68
2022/12/15 06:07:49;;;;;;;;;;;;;;;10.67;69.82;100433.00;1252537;23;642;-67
2022/12/15 06:08:40;;;;;;;;;;;;;;;10.69;69.27;100432.91;1252088;23;670;-67
2022/12/15 06:09:30;;;;;;;;;;;;;;;10.70;69.34;100437.28;1252452;23;524;-67
2022/12/15 06:10:20;;;;;;;;;;;;;;;10.75;69.10;100429.78;1255885;23;630;-67
2022/12/15 06:11:11;;;;;;;;;;;;;;;10.82;68.98;100427.53;1253070;23;634;-67
2022/12/15 06:12:01;;;;;;;;;;;;;;;10.79;68.93;100425.94;1256205;23;681;-67
2022/12/15 06:12:53;;;;;;;;;;;;;;;10.83;68.93;100429.25;1255918;23;641;-67
2022/12/15 06:13:43;;;;;;;;;;;;;;;10.82;69.00;100425.72;1252680;23;621;-66
2022/12/15 06:14:35;;;;;;;;;;;;;;;10.85;68.44;100422.84;1252940;23;1909;-68
2022/12/15 06:15:25;;;;;;;;;;;;;;;10.93;68.03;100427.59;1252645;23;626;-66
2022/12/15 06:16:15;;;;;;;;;;;;;;;10.92;68.29;100433.91;1252964;23;587;-66
2022/12/15 06:17:06;;;;;;;;;;;;;;;10.79;68.73;100434.78;1252118;23;623;-67
2022/12/15 06:17:57;;;;;;;;;;;;;;;10.69;68.93;100436.41;1252721;23;666;-66
2022/12/15 06:18:49;;;;;;;;;;;;;;;10.59;69.53;100438.03;1255287;23;662;-66
2022/12/15 06:19:39;;;;;;;;;;;;;;;10.51;68.81;100443.06;1254616;23;614;-66
2022/12/15 06:20:30;;;;;;;;;;;;;;;10.47;69.10;100435.41;1254742;23;693;-66
2022/12/15 06:21:20;;;;;;;;;;;;;;;10.46;68.70;100442.53;1252718;23;681;-67
2022/12/15 06:22:11;;;;;;;;;;;;;;;10.44;69.23;100441.78;1252881;23;602;-66
2022/12/15 06:23:01;;;;;;;;;;;;;;;10.42;69.05;100449.88;1256063;23;618;-66
2022/12/15 06:23:52;;;;;;;;;;;;;;;10.42;69.45;100449.03;1253016;23;666;-67
2022/12/15 06:24:42;;;;;;;;;;;;;;;10.40;69.40;100442.97;1252819;23;631;-66
2022/12/15 06:25:33;;;;;;;;;;;;;;;10.36;69.44;100445.00;1253133;23;613;-66
2022/12/15 06:26:24;;;;;;;;;;;;;;;10.30;69.36;100450.75;1252706;23;657;-66
2022/12/15 06:27:14;;;;;;;;;;;;;;;10.27;69.10;100447.44;1252506;23;615;-66
2022/12/15 06:28:05;;;;;;;;;;;;;;;10.24;69.51;100445.00;1255955;23;653;-66
2022/12/15 06:28:55;;;;;;;;;;;;;;;10.23;69.76;100456.59;1252271;23;670;-66
2022/12/15 06:29:46;;;;;;;;;;;;;;;10.24;69.35;100459.16;1252641;23;685;-66
2022/12/15 06:30:37;;;;;;;;;;;;;;;10.22;69.34;100452.22;1255072;23;849;-66
2022/12/15 06:31:27;;;;;;;;;;;;;;;10.20;69.45;100451.53;1252439;23;670;-66
2022/12/15 06:32:20;;;;;;;;;;;;;;;10.20;69.77;100455.03;1255818;23;653;-66
2022/12/15 06:33:10;;;;;;;;;;;;;;;10.17;69.80;100447.22;1252169;23;674;-66
2022/12/15 06:34:00;;;;;;;;;;;;;;;10.16;69.46;100455.31;1255729;23;716;-66
2022/12/15 06:34:51;;;;;;;;;;;;;;;10.13;69.33;100456.38;1252146;23;663;-66
2022/12/15 06:35:41;;;;;;;;;;;;;;;10.15;69.74;100458.94;1252619;23;655;-66
2022/12/15 06:36:32;;;;;;;;;;;;;;;10.13;69.85;100461.69;1252832;23;686;-67
2022/12/15 06:37:22;;;;;;;;;;;;;;;10.13;69.52;100461.69;1252135;23;663;-67
2022/12/15 06:38:13;;;;;;;;;;;;;;;10.15;69.76;100461.59;1252426;23;658;-67
2022/12/15 06:39:03;;;;;;;;;;;;;;;10.13;69.30;100459.03;1254009;23;665;-67
2022/12/15 06:39:53;;;;;;;;;;;;;;;10.14;69.23;100462.56;1252756;23;630;-67
2022/12/15 06:40:44;;;;;;;;;;;;;;;10.12;69.71;100457.31;1255807;23;654;-67
2022/12/15 06:41:34;;;;;;;;;;;;;;;10.10;69.54;100457.44;1252567;23;611;-67
2022/12/15 06:42:25;;;;;;;;;;;;;;;10.09;69.54;100455.72;1253004;23;658;-67
2022/12/15 06:43:15;;;;;;;;;;;;;;;10.08;69.50;100466.47;1250591;23;658;-67
2022/12/15 06:44:05;;;;;;;;;;;;;;;10.09;69.40;100463.72;1252050;23;614;-67
2022/12/15 06:44:56;;;;;;;;;;;;;;;10.08;69.46;100467.34;1254978;23;724;-67
2022/12/15 06:45:46;;;;;;;;;;;;;;;10.07;69.45;100462.97;1252830;23;646;-67
2022/12/15 06:46:37;;;;;;;;;;;;;;;10.08;69.24;100464.66;1255337;23;700;-67
2022/12/15 06:47:27;;;;;;;;;;;;;;;10.04;69.53;100465.84;1254492;23;624;-67